sensor_id;sensor_type;location;lat;lon;timestamp;pressure;altitude;pressure_sealevel;temperature;humidity
19831;BME280;10076;52.008;4.708;2022-12-24T00:00:55;100644.28;;;11.63;100.00
19831;BME280;10076;52.008;4.708;2022-12-24T00:03:21;100649.47;;;11.65;100.00
19831;BME280;10076;52.008;4.708;2022-12-24T00:05:46;100644.16;;;11.54;100.00
19831;BME280;10076;52.008;4.708;2022-12-24T00:08:12;100656.31;;;11.56;100.00
19831;BME280;10076;52.008;4.708;2022-12-24T00:10:37;100656.44;;;11.66;100.00
19831;BME280;10076;52.008;4.708;2022-12-24T00:13:02;100653.53;;;11.58;100.00
19831;BME280;10076;52.008;4.708;2022-12-24T00:15:28;100653.53;;;11.58;100.00
19831;BME280;10076;52.008;4.708;2022-12-24T00:17:53;100650.75;;;11.59;100.00
19831;BME280;10076;52.008;4.708;2022-12-24T00:20:18;100654.25;;;11.60;100.00
19831;BME280;10076;52.008;4.708;2022-12-24T00:22:43;100656.00;;;11.48;100.00
19831;BME280;10076;52.008;4.708;2022-12-24T00:25:09;100656.13;;;11.47;100.00
19831;BME280;10076;52.008;4.708;2022-12-24T00:27:34;100664.88;;;11.47;100.00
19831;BME280;10076;52.008;4.708;2022-12-24T00:29:59;100672.34;;;11.42;100.00
19831;BME280;10076;52.008;4.708;2022-12-24T00:32:25;100669.09;;;11.39;100.00
19831;BME280;10076;52.008;4.708;2022-12-24T00:34:50;100674.63;;;11.36;100.00
19831;BME280;10076;52.008;4.708;2022-12-24T00:37:15;100669.81;;;11.41;100.00
19831;BME280;10076;52.008;4.708;2022-12-24T00:39:40;100678.22;;;11.35;100.00
19831;BME280;10076;52.008;4.708;2022-12-24T00:42:06;100684.59;;;11.32;100.00
19831;BME280;10076;52.008;4.708;2022-12-24T00:44:31;100691.16;;;11.27;100.00
19831;BME280;10076;52.008;4.708;2022-12-24T00:46:56;100693.69;;;11.17;100.00
19831;BME280;10076;52.008;4.708;2022-12-24T00:49:22;100696.22;;;11.30;100.00
19831;BME280;10076;52.008;4.708;2022-12-24T00:51:47;100699.09;;;11.27;100.00
19831;BME280;10076;52.008;4.708;2022-12-24T00:54:13;100695.47;;;11.17;100.00
19831;BME280;10076;52.008;4.708;2022-12-24T00:56:38;100713.78;;;11.31;100.00
19831;BME280;10076;52.008;4.708;2022-12-24T00:59:04;100701.03;;;11.25;100.00
19831;BME280;10076;52.008;4.708;2022-12-24T01:01:29;100712.06;;;11.19;100.00
19831;BME280;10076;52.008;4.708;2022-12-24T01:03:54;100723.09;;;11.13;100.00
19831;BME280;10076;52.008;4.708;2022-12-24T01:06:38;100723.59;;;11.18;100.00
19831;BME280;10076;52.008;4.708;2022-12-24T01:09:04;100721.16;;;11.15;100.00
19831;BME280;10076;52.008;4.708;2022-12-24T01:11:29;100720.44;;;11.13;100.00
19831;BME280;10076;52.008;4.708;2022-12-24T01:13:54;100720.50;;;11.00;100.00
19831;BME280;10076;52.008;4.708;2022-12-24T01:16:20;100735.75;;;10.97;100.00
19831;BME280;10076;52.008;4.708;2022-12-24T01:18:45;100739.38;;;11.07;100.00
19831;BME280;10076;52.008;4.708;2022-12-24T01:21:11;100739.97;;;11.00;100.00
19831;BME280;10076;52.008;4.708;2022-12-24T01:23:36;100746.69;;;11.03;100.00
19831;BME280;10076;52.008;4.708;2022-12-24T01:26:03;100742.25;;;11.04;100.00
19831;BME280;10076;52.008;4.708;2022-12-24T01:28:28;100745.56;;;10.95;100.00
19831;BME280;10076;52.008;4.708;2022-12-24T01:30:54;100746.69;;;11.03;100.00
19831;BME280;10076;52.008;4.708;2022-12-24T01:33:19;100748.09;;;10.97;100.00
19831;BME280;10076;52.008;4.708;2022-12-24T01:35:45;100754.50;;;11.05;100.00
19831;BME280;10076;52.008;4.708;2022-12-24T01:38:11;100753.66;;;10.81;100.00
19831;BME280;10076;52.008;4.708;2022-12-24T01:40:38;100754.16;;;10.86;100.00
19831;BME280;10076;52.008;4.708;2022-12-24T01:43:22;100769.72;;;11.01;100.00
19831;BME280;10076;52.008;4.708;2022-12-24T01:48:21;100773.81;;;10.95;100.00
19831;BME280;10076;52.008;4.708;2022-12-24T01:50:50;100773.91;;;11.16;100.00
19831;BME280;10076;52.008;4.708;2022-12-24T01:53:17;100772.28;;;11.03;100.00
19831;BME280;10076;52.008;4.708;2022-12-24T01:55:44;100782.75;;;11.04;100.00
19831;BME280;10076;52.008;4.708;2022-12-24T01:58:12;100783.69;;;11.03;100.00
19831;BME280;10076;52.008;4.708;2022-12-24T02:00:39;100787.53;;;10.87;100.00
19831;BME280;10076;52.008;4.708;2022-12-24T02:03:07;100793.34;;;10.92;100.00
19831;BME280;10076;52.008;4.708;2022-12-24T02:05:45;100797.97;;;11.01;100.00
19831;BME280;10076;52.008;4.708;2022-12-24T02:08:11;100804.09;;;11.01;100.00
19831;BME280;10076;52.008;4.708;2022-12-24T02:10:37;100802.38;;;11.13;100.00
19831;BME280;10076;52.008;4.708;2022-12-24T02:13:03;100807.41;;;11.16;100.00
19831;BME280;10076;52.008;4.708;2022-12-24T02:15:40;100805.84;;;10.90;100.00
19831;BME280;10076;52.008;4.708;2022-12-24T02:32:12;100802.69;;;11.08;100.00
19831;BME280;10076;52.008;4.708;2022-12-24T02:37:27;100812.59;;;11.17;100.00
19831;BME280;10076;52.008;4.708;2022-12-24T02:40:00;100815.25;;;11.17;100.00
19831;BME280;10076;52.008;4.708;2022-12-24T02:42:31;100824.75;;;11.20;100.00
19831;BME280;10076;52.008;4.708;2022-12-24T02:45:14;100821.66;;;11.26;100.00
19831;BME280;10076;52.008;4.708;2022-12-24T02:47:43;100818.56;;;11.32;100.00
19831;BME280;10076;52.008;4.708;2022-12-24T02:50:12;100824.63;;;11.21;100.00
19831;BME280;10076;52.008;4.708;2022-12-24T02:52:43;100822.25;;;11.29;100.00
19831;BME280;10076;52.008;4.708;2022-12-24T02:58:22;100836.53;;;11.27;100.00
19831;BME280;10076;52.008;4.708;2022-12-24T03:03:41;100833.22;;;11.36;100.00
19831;BME280;10076;52.008;4.708;2022-12-24T03:06:17;100840.38;;;11.23;100.00
19831;BME280;10076;52.008;4.708;2022-12-24T03:09:01;100840.41;;;11.34;100.00
19831;BME280;10076;52.008;4.708;2022-12-24T03:11:30;100835.75;;;11.37;100.00
19831;BME280;10076;52.008;4.708;2022-12-24T03:13:57;100839.88;;;11.18;100.00
19831;BME280;10076;52.008;4.708;2022-12-24T03:16:25;100852.69;;;11.35;100.00
19831;BME280;10076;52.008;4.708;2022-12-24T03:18:52;100860.00;;;11.31;100.00
19831;BME280;10076;52.008;4.708;2022-12-24T03:21:25;100857.28;;;11.56;100.00
19831;BME280;10076;52.008;4.708;2022-12-24T03:23:53;100866.28;;;11.54;100.00
19831;BME280;10076;52.008;4.708;2022-12-24T03:26:19;100863.31;;;11.58;100.00
19831;BME280;10076;52.008;4.708;2022-12-24T03:28:45;100862.44;;;11.58;100.00
19831;BME280;10076;52.008;4.708;2022-12-24T03:31:11;100871.00;;;11.61;100.00
19831;BME280;10076;52.008;4.708;2022-12-24T03:33:37;100868.03;;;11.66;100.00
19831;BME280;10076;52.008;4.708;2022-12-24T03:36:04;100860.16;;;11.64;100.00
19831;BME280;10076;52.008;4.708;2022-12-24T03:38:30;100854.78;;;11.66;100.00
19831;BME280;10076;52.008;4.708;2022-12-24T03:40:55;100866.94;;;11.68;100.00
19831;BME280;10076;52.008;4.708;2022-12-24T03:43:21;100866.38;;;11.75;100.00
19831;BME280;10076;52.008;4.708;2022-12-24T03:45:46;100856.63;;;11.76;100.00
19831;BME280;10076;52.008;4.708;2022-12-24T03:48:12;100865.00;;;11.70;100.00
19831;BME280;10076;52.008;4.708;2022-12-24T03:50:37;100864.00;;;11.60;100.00
19831;BME280;10076;52.008;4.708;2022-12-24T03:53:02;100867.44;;;11.73;100.00
19831;BME280;10076;52.008;4.708;2022-12-24T03:55:28;100873.22;;;11.78;100.00
19831;BME280;10076;52.008;4.708;2022-12-24T03:57:53;100874.13;;;11.66;100.00
19831;BME280;10076;52.008;4.708;2022-12-24T04:00:19;100874.63;;;11.71;100.00
19831;BME280;10076;52.008;4.708;2022-12-24T04:02:44;100873.84;;;11.81;100.00
19831;BME280;10076;52.008;4.708;2022-12-24T04:05:15;100879.97;;;11.82;100.00
19831;BME280;10076;52.008;4.708;2022-12-24T04:07:41;100878.34;;;11.69;100.00
19831;BME280;10076;52.008;4.708;2022-12-24T04:10:07;100868.19;;;11.75;100.00
19831;BME280;10076;52.008;4.708;2022-12-24T04:12:33;100868.19;;;-138.79;100.00
19831;BME280;10076;52.008;4.708;2022-12-24T04:14:58;100884.78;;;11.88;100.00
19831;BME280;10076;52.008;4.708;2022-12-24T04:17:23;100885.88;;;11.85;100.00
19831;BME280;10076;52.008;4.708;2022-12-24T04:19:48;100891.41;;;11.82;100.00
19831;BME280;10076;52.008;4.708;2022-12-24T04:22:14;100887.56;;;11.86;100.00
19831;BME280;10076;52.008;4.708;2022-12-24T04:24:39;100890.00;;;11.89;100.00
19831;BME280;10076;52.008;4.708;2022-12-24T04:27:04;100890.81;;;11.90;100.00
19831;BME280;10076;52.008;4.708;2022-12-24T04:29:30;100892.19;;;11.95;100.00
19831;BME280;10076;52.008;4.708;2022-12-24T04:31:55;100894.56;;;11.87;100.00
19831;BME280;10076;52.008;4.708;2022-12-24T04:34:20;100892.19;;;11.95;100.00
19831;BME280;10076;52.008;4.708;2022-12-24T04:36:45;100898.03;;;11.88;100.00
19831;BME280;10076;52.008;4.708;2022-12-24T04:39:11;100889.75;;;11.92;100.00
19831;BME280;10076;52.008;4.708;2022-12-24T04:41:36;100900.50;;;12.02;100.00
19831;BME280;10076;52.008;4.708;2022-12-24T04:44:01;100901.91;;;11.95;100.00
19831;BME280;10076;52.008;4.708;2022-12-24T04:46:28;100900.13;;;11.95;100.00
19831;BME280;10076;52.008;4.708;2022-12-24T04:48:57;100912.56;;;11.82;100.00
19831;BME280;10076;52.008;4.708;2022-12-24T04:51:24;100913.69;;;11.91;100.00
19831;BME280;10076;52.008;4.708;2022-12-24T04:53:50;100915.72;;;11.87;100.00
19831;BME280;10076;52.008;4.708;2022-12-24T04:56:19;100912.28;;;11.74;100.00
19831;BME280;10076;52.008;4.708;2022-12-24T04:58:46;100917.63;;;11.85;100.00
19831;BME280;10076;52.008;4.708;2022-12-24T05:01:13;100918.84;;;11.92;100.00
19831;BME280;10076;52.008;4.708;2022-12-24T05:03:40;100916.97;;;11.94;100.00
19831;BME280;10076;52.008;4.708;2022-12-24T05:06:07;100919.34;;;11.97;100.00
19831;BME280;10076;52.008;4.708;2022-12-24T05:08:33;100918.97;;;11.91;100.00
19831;BME280;10076;52.008;4.708;2022-12-24T05:11:00;100919.59;;;11.94;100.00
19831;BME280;10076;52.008;4.708;2022-12-24T05:13:26;100932.25;;;11.78;100.00
19831;BME280;10076;52.008;4.708;2022-12-24T05:15:52;100932.25;;;11.78;100.00
19831;BME280;10076;52.008;4.708;2022-12-24T05:18:18;100927.03;;;11.89;100.00
19831;BME280;10076;52.008;4.708;2022-12-24T05:20:44;100927.53;;;11.94;100.00
19831;BME280;10076;52.008;4.708;2022-12-24T05:23:15;100930.06;;;11.96;100.00
19831;BME280;10076;52.008;4.708;2022-12-24T05:25:59;100932.03;;;11.81;100.00
19831;BME280;10076;52.008;4.708;2022-12-24T05:28:43;100934.84;;;11.91;100.00
19831;BME280;10076;52.008;4.708;2022-12-24T05:31:08;100929.78;;;11.88;100.00
19831;BME280;10076;52.008;4.708;2022-12-24T05:33:34;100915.13;;;11.95;100.00
19831;BME280;10076;52.008;4.708;2022-12-24T05:35:59;100920.09;;;11.76;100.00
19831;BME280;10076;52.008;4.708;2022-12-24T05:38:24;100918.31;;;11.76;100.00
19831;BME280;10076;52.008;4.708;2022-12-24T05:40:50;100925.09;;;11.91;100.00
19831;BME280;10076;52.008;4.708;2022-12-24T05:43:15;100918.84;;;11.92;100.00
19831;BME280;10076;52.008;4.708;2022-12-24T05:45:40;100913.34;;;11.72;100.00
19831;BME280;10076;52.008;4.708;2022-12-24T05:48:05;100929.97;;;11.74;100.00
19831;BME280;10076;52.008;4.708;2022-12-24T05:50:32;100933.56;;;11.73;100.00
19831;BME280;10076;52.008;4.708;2022-12-24T05:52:58;100943.81;;;11.77;100.00
19831;BME280;10076;52.008;4.708;2022-12-24T05:55:23;100943.66;;;11.68;100.00
19831;BME280;10076;52.008;4.708;2022-12-24T05:57:48;100947.41;;;11.76;100.00
19831;BME280;10076;52.008;4.708;2022-12-24T06:00:14;100946.69;;;11.74;100.00
19831;BME280;10076;52.008;4.708;2022-12-24T06:02:39;100941.63;;;11.72;100.00
19831;BME280;10076;52.008;4.708;2022-12-24T06:05:04;100948.13;;;11.78;100.00
19831;BME280;10076;52.008;4.708;2022-12-24T06:07:30;100962.88;;;11.70;100.00
19831;BME280;10076;52.008;4.708;2022-12-24T06:09:55;100962.34;;;11.77;100.00
19831;BME280;10076;52.008;4.708;2022-12-24T06:12:20;100965.19;;;11.74;100.00
19831;BME280;10076;52.008;4.708;2022-12-24T06:14:46;100965.94;;;11.76;100.00
19831;BME280;10076;52.008;4.708;2022-12-24T06:17:11;100966.59;;;11.68;100.00
19831;BME280;10076;52.008;4.708;2022-12-24T06:19:36;100970.78;;;11.82;100.00
19831;BME280;10076;52.008;4.708;2022-12-24T06:22:02;100983.03;;;11.48;100.00
19831;BME280;10076;52.008;4.708;2022-12-24T06:24:27;100994.91;;;11.55;100.00
19831;BME280;10076;52.008;4.708;2022-12-24T06:26:52;100988.44;;;11.59;100.00
19831;BME280;10076;52.008;4.708;2022-12-24T06:29:17;100997.75;;;11.52;100.00
19831;BME280;10076;52.008;4.708;2022-12-24T06:31:43;100994.72;;;11.69;100.00
19831;BME280;10076;52.008;4.708;2022-12-24T06:34:08;100993.22;;;11.54;100.00
19831;BME280;10076;52.008;4.708;2022-12-24T06:36:33;100988.25;;;11.37;100.00
19831;BME280;10076;52.008;4.708;2022-12-24T06:38:59;100992.47;;;11.39;100.00
19831;BME280;10076;52.008;4.708;2022-12-24T06:41:24;100994.34;;;11.50;100.00
19831;BME280;10076;52.008;4.708;2022-12-24T06:43:51;101000.72;;;11.35;100.00
19831;BME280;10076;52.008;4.708;2022-12-24T06:46:17;100985.72;;;11.23;100.00
19831;BME280;10076;52.008;4.708;2022-12-24T06:48:43;100987.38;;;11.36;100.00
19831;BME280;10076;52.008;4.708;2022-12-24T06:51:10;100994.41;;;11.12;100.00
19831;BME280;10076;52.008;4.708;2022-12-24T06:53:36;100991.44;;;11.17;100.00
19831;BME280;10076;52.008;4.708;2022-12-24T06:56:06;100987.00;;;11.30;100.00
19831;BME280;10076;52.008;4.708;2022-12-24T06:58:33;100996.00;;;11.15;100.00
19831;BME280;10076;52.008;4.708;2022-12-24T07:01:03;101008.47;;;11.00;100.00
19831;BME280;10076;52.008;4.708;2022-12-24T07:03:29;101006.38;;;11.05;100.00
19831;BME280;10076;52.008;4.708;2022-12-24T07:05:54;101005.31;;;10.96;100.00
19831;BME280;10076;52.008;4.708;2022-12-24T07:08:20;101022.44;;;11.02;100.00
19831;BME280;10076;52.008;4.708;2022-12-24T07:10:47;101021.59;;;11.02;100.00
19831;BME280;10076;52.008;4.708;2022-12-24T07:13:13;101016.63;;;10.98;100.00
19831;BME280;10076;52.008;4.708;2022-12-24T07:15:38;101023.81;;;10.96;100.00
19831;BME280;10076;52.008;4.708;2022-12-24T07:18:04;101018.75;;;10.93;100.00
19831;BME280;10076;52.008;4.708;2022-12-24T07:20:29;101034.59;;;11.05;100.00
19831;BME280;10076;52.008;4.708;2022-12-24T07:22:54;101025.81;;;10.92;100.00
19831;BME280;10076;52.008;4.708;2022-12-24T07:25:20;101038.81;;;10.95;100.00
19831;BME280;10076;52.008;4.708;2022-12-24T07:27:45;101037.53;;;10.88;100.00
19831;BME280;10076;52.008;4.708;2022-12-24T07:30:11;101043.25;;;11.07;100.00
19831;BME280;10076;52.008;4.708;2022-12-24T07:32:36;101056.38;;;10.96;100.00
19831;BME280;10076;52.008;4.708;2022-12-24T07:35:01;101061.84;;;10.93;100.00
19831;BME280;10076;52.008;4.708;2022-12-24T07:37:27;101060.69;;;11.09;100.00
19831;BME280;10076;52.008;4.708;2022-12-24T07:39:52;101059.34;;;11.16;100.00
19831;BME280;10076;52.008;4.708;2022-12-24T07:42:18;101067.16;;;11.18;100.00
19831;BME280;10076;52.008;4.708;2022-12-24T07:44:43;101070.22;;;11.37;100.00
19831;BME280;10076;52.008;4.708;2022-12-24T07:47:08;101077.94;;;11.27;100.00
19831;BME280;10076;52.008;4.708;2022-12-24T07:49:34;101083.84;;;11.31;100.00
19831;BME280;10076;52.008;4.708;2022-12-24T07:52:00;101089.44;;;11.39;100.00
19831;BME280;10076;52.008;4.708;2022-12-24T07:54:26;101087.00;;;11.48;100.00
19831;BME280;10076;52.008;4.708;2022-12-24T07:56:51;101093.56;;;11.43;100.00
19831;BME280;10076;52.008;4.708;2022-12-24T07:59:16;101096.22;;;11.43;100.00
19831;BME280;10076;52.008;4.708;2022-12-24T08:01:41;101100.34;;;11.47;100.00
19831;BME280;10076;52.008;4.708;2022-12-24T08:04:07;101100.34;;;11.47;100.00
19831;BME280;10076;52.008;4.708;2022-12-24T08:06:32;101111.84;;;11.46;100.00
19831;BME280;10076;52.008;4.708;2022-12-24T08:08:57;101122.56;;;11.44;100.00
19831;BME280;10076;52.008;4.708;2022-12-24T08:11:23;101120.09;;;11.41;100.00
19831;BME280;10076;52.008;4.708;2022-12-24T08:13:48;101112.34;;;11.52;100.00
19831;BME280;10076;52.008;4.708;2022-12-24T08:16:13;101133.97;;;11.45;100.00
19831;BME280;10076;52.008;4.708;2022-12-24T08:18:38;101123.91;;;11.50;100.00
19831;BME280;10076;52.008;4.708;2022-12-24T08:21:07;101127.72;;;11.46;100.00
19831;BME280;10076;52.008;4.708;2022-12-24T08:23:34;101131.22;;;11.46;100.00
19831;BME280;10076;52.008;4.708;2022-12-24T08:25:59;101141.69;;;11.48;100.00
19831;BME280;10076;52.008;4.708;2022-12-24T08:28:25;101143.09;;;11.66;100.00
19831;BME280;10076;52.008;4.708;2022-12-24T08:30:50;101151.13;;;11.64;100.00
19831;BME280;10076;52.008;4.708;2022-12-24T08:33:16;101154.06;;;11.72;100.00
19831;BME280;10076;52.008;4.708;2022-12-24T08:35:49;101155.91;;;11.72;100.00
19831;BME280;10076;52.008;4.708;2022-12-24T08:38:15;101152.47;;;11.94;100.00
19831;BME280;10076;52.008;4.708;2022-12-24T08:40:41;101159.56;;;11.81;100.00
19831;BME280;10076;52.008;4.708;2022-12-24T08:43:07;101169.09;;;11.84;100.00
19831;BME280;10076;52.008;4.708;2022-12-24T08:45:32;101165.81;;;11.80;100.00
19831;BME280;10076;52.008;4.708;2022-12-24T08:47:58;101175.84;;;11.88;100.00
19831;BME280;10076;52.008;4.708;2022-12-24T08:50:24;101174.78;;;12.03;100.00
19831;BME280;10076;52.008;4.708;2022-12-24T08:52:50;101176.25;;;12.07;100.00
19831;BME280;10076;52.008;4.708;2022-12-24T08:55:15;101176.25;;;12.07;100.00
19831;BME280;10076;52.008;4.708;2022-12-24T08:57:41;101185.75;;;12.22;100.00
19831;BME280;10076;52.008;4.708;2022-12-24T09:00:07;101185.53;;;12.25;100.00
19831;BME280;10076;52.008;4.708;2022-12-24T09:02:33;101199.41;;;12.28;100.00
19831;BME280;10076;52.008;4.708;2022-12-24T09:04:58;101199.72;;;12.24;100.00
19831;BME280;10076;52.008;4.708;2022-12-24T09:07:23;101199.75;;;12.11;100.00
19831;BME280;10076;52.008;4.708;2022-12-24T09:09:49;101201.66;;;12.22;100.00
19831;BME280;10076;52.008;4.708;2022-12-24T09:12:14;101205.44;;;12.30;100.00
19831;BME280;10076;52.008;4.708;2022-12-24T09:14:39;101208.59;;;12.35;100.00
19831;BME280;10076;52.008;4.708;2022-12-24T09:17:05;101206.16;;;12.32;100.00
19831;BME280;10076;52.008;4.708;2022-12-24T09:19:30;101210.88;;;12.39;100.00
19831;BME280;10076;52.008;4.708;2022-12-24T09:21:55;101207.41;;;12.39;100.00
19831;BME280;10076;52.008;4.708;2022-12-24T09:24:21;101221.47;;;12.39;100.00
19831;BME280;10076;52.008;4.708;2022-12-24T09:26:46;101233.66;;;12.42;100.00
19831;BME280;10076;52.008;4.708;2022-12-24T09:29:14;101236.31;;;12.42;100.00
19831;BME280;10076;52.008;4.708;2022-12-24T09:31:40;101239.13;;;12.28;100.00
19831;BME280;10076;52.008;4.708;2022-12-24T09:34:05;101240.38;;;12.35;100.00
19831;BME280;10076;52.008;4.708;2022-12-24T09:36:32;101225.25;;;12.25;100.00
19831;BME280;10076;52.008;4.708;2022-12-24T09:38:58;101239.13;;;12.28;100.00
19831;BME280;10076;52.008;4.708;2022-12-24T09:41:41;101235.59;;;12.40;100.00
19831;BME280;10076;52.008;4.708;2022-12-24T09:44:36;101242.28;;;12.33;100.00
19831;BME280;10076;52.008;4.708;2022-12-24T09:47:09;101237.16;;;12.42;100.00
19831;BME280;10076;52.008;4.708;2022-12-24T09:49:41;101239.81;;;12.42;100.00
19831;BME280;10076;52.008;4.708;2022-12-24T09:52:11;101247.88;;;12.41;100.00
19831;BME280;10076;52.008;4.708;2022-12-24T09:54:43;101242.47;;;12.42;100.00
19831;BME280;10076;52.008;4.708;2022-12-24T09:57:19;101234.78;;;12.63;100.00
19831;BME280;10076;52.008;4.708;2022-12-24T09:59:48;101244.41;;;12.64;100.00
19831;BME280;10076;52.008;4.708;2022-12-24T10:02:16;101258.31;;;12.55;100.00
19831;BME280;10076;52.008;4.708;2022-12-24T10:04:42;101250.56;;;12.64;100.00
19831;BME280;10076;52.008;4.708;2022-12-24T10:12:35;101249.66;;;12.53;100.00
19831;BME280;10076;52.008;4.708;2022-12-24T10:17:50;101267.63;;;12.60;100.00
19831;BME280;10076;52.008;4.708;2022-12-24T10:20:48;101258.88;;;12.83;100.00
19831;BME280;10076;52.008;4.708;2022-12-24T10:28:55;101261.72;;;12.93;100.00
19831;BME280;10076;52.008;4.708;2022-12-24T10:31:29;101258.88;;;12.83;100.00
19831;BME280;10076;52.008;4.708;2022-12-24T10:33:58;101259.69;;;12.84;100.00
19831;BME280;10076;52.008;4.708;2022-12-24T10:36:28;101268.31;;;12.87;100.00
19831;BME280;10076;52.008;4.708;2022-12-24T10:38:54;101262.34;;;12.84;100.00
19831;BME280;10076;52.008;4.708;2022-12-24T10:41:20;101264.38;;;12.93;100.00
19831;BME280;10076;52.008;4.708;2022-12-24T10:43:47;101265.69;;;12.75;100.00
19831;BME280;10076;52.008;4.708;2022-12-24T10:46:35;101273.75;;;12.73;100.00
19831;BME280;10076;52.008;4.708;2022-12-24T10:49:04;101285.75;;;12.66;100.00
19831;BME280;10076;52.008;4.708;2022-12-24T10:51:40;101283.28;;;12.63;100.00
19831;BME280;10076;52.008;4.708;2022-12-24T10:54:17;101285.63;;;12.68;100.00
19831;BME280;10076;52.008;4.708;2022-12-24T10:56:46;101287.59;;;12.77;100.00
19831;BME280;10076;52.008;4.708;2022-12-24T10:59:25;101279.69;;;12.64;100.00
19831;BME280;10076;52.008;4.708;2022-12-24T11:01:52;101282.66;;;12.72;100.00
19831;BME280;10076;52.008;4.708;2022-12-24T11:04:21;101285.69;;;12.79;100.00
19831;BME280;10076;52.008;4.708;2022-12-24T11:09:32;101277.16;;;12.63;100.00
19831;BME280;10076;52.008;4.708;2022-12-24T11:11:59;101286.03;;;12.74;100.00
19831;BME280;10076;52.008;4.708;2022-12-24T11:14:28;101283.38;;;12.87;100.00
19831;BME280;10076;52.008;4.708;2022-12-24T11:16:58;101280.34;;;13.04;100.00
19831;BME280;10076;52.008;4.708;2022-12-24T11:19:34;101284.13;;;12.76;100.00
19831;BME280;10076;52.008;4.708;2022-12-24T11:22:28;101286.44;;;12.81;100.00
19831;BME280;10076;52.008;4.708;2022-12-24T11:25:01;101285.91;;;12.88;100.00
19831;BME280;10076;52.008;4.708;2022-12-24T11:27:41;101282.44;;;12.88;100.00
19831;BME280;10076;52.008;4.708;2022-12-24T11:30:21;101291.97;;;12.90;100.00
19831;BME280;10076;52.008;4.708;2022-12-24T11:32:49;101288.56;;;13.11;100.00
19831;BME280;10076;52.008;4.708;2022-12-24T11:35:21;101293.28;;;13.08;100.00
19831;BME280;10076;52.008;4.708;2022-12-24T11:38:09;101297.75;;;13.42;100.00
19831;BME280;10076;52.008;4.708;2022-12-24T11:40:41;101294.03;;;13.44;100.00
19831;BME280;10076;52.008;4.708;2022-12-24T11:43:14;101292.94;;;13.47;100.00
19831;BME280;10076;52.008;4.708;2022-12-24T11:45:55;101304.63;;;13.44;100.00
19831;BME280;10076;52.008;4.708;2022-12-24T11:48:30;101307.00;;;13.60;100.00
19831;BME280;10076;52.008;4.708;2022-12-24T11:51:02;101300.81;;;13.93;100.00
19831;BME280;10076;52.008;4.708;2022-12-24T11:53:43;101304.13;;;14.19;100.00
19831;BME280;10076;52.008;4.708;2022-12-24T11:59:02;101295.63;;;14.03;100.00
19831;BME280;10076;52.008;4.708;2022-12-24T12:01:41;101305.22;;;14.16;100.00
19831;BME280;10076;52.008;4.708;2022-12-24T12:04:16;101302.56;;;14.27;100.00
19831;BME280;10076;52.008;4.708;2022-12-24T12:07:12;101298.09;;;14.50;100.00
19831;BME280;10076;52.008;4.708;2022-12-24T12:09:44;101308.72;;;14.71;100.00
19831;BME280;10076;52.008;4.708;2022-12-24T12:12:19;101306.25;;;14.79;100.00
19831;BME280;10076;52.008;4.708;2022-12-24T12:14:52;101299.66;;;14.30;100.00
19831;BME280;10076;52.008;4.708;2022-12-24T12:17:32;101301.50;;;13.95;100.00
19831;BME280;10076;52.008;4.708;2022-12-24T12:20:03;101300.81;;;14.04;100.00
19831;BME280;10076;52.008;4.708;2022-12-24T12:23:33;101297.88;;;13.85;100.00
19831;BME280;10076;52.008;4.708;2022-12-24T12:28:21;101315.25;;;13.89;100.00
19831;BME280;10076;52.008;4.708;2022-12-24T12:30:55;101318.84;;;14.45;100.00
19831;BME280;10076;52.008;4.708;2022-12-24T12:33:36;101325.28;;;14.64;100.00
19831;BME280;10076;52.008;4.708;2022-12-24T12:36:04;101327.94;;;14.64;100.00
19831;BME280;10076;52.008;4.708;2022-12-24T12:38:31;101325.84;;;14.67;100.00
19831;BME280;10076;52.008;4.708;2022-12-24T12:49:20;101334.28;;;17.28;100.00
19831;BME280;10076;52.008;4.708;2022-12-24T12:55:06;101341.50;;;16.97;100.00
19831;BME280;10076;52.008;4.708;2022-12-24T12:57:40;101346.75;;;15.78;100.00
19831;BME280;10076;52.008;4.708;2022-12-24T13:00:08;101342.94;;;15.18;100.00
19831;BME280;10076;52.008;4.708;2022-12-24T13:22:15;101338.66;;;18.59;100.00
19831;BME280;10076;52.008;4.708;2022-12-24T13:24:47;101352.56;;;18.72;100.00
19831;BME280;10076;52.008;4.708;2022-12-24T13:27:18;101355.25;;;18.07;100.00
19831;BME280;10076;52.008;4.708;2022-12-24T13:32:45;101369.72;;;17.39;100.00
19831;BME280;10076;52.008;4.708;2022-12-24T13:37:42;101364.28;;;17.11;100.00
19831;BME280;10076;52.008;4.708;2022-12-24T13:40:15;101363.53;;;16.90;100.00
19831;BME280;10076;52.008;4.708;2022-12-24T13:47:52;101367.09;;;15.99;100.00
19831;BME280;10076;52.008;4.708;2022-12-24T13:53:29;101370.41;;;15.08;100.00
19831;BME280;10076;52.008;4.708;2022-12-24T13:56:21;101371.50;;;15.05;100.00
19831;BME280;10076;52.008;4.708;2022-12-24T13:58:51;101379.47;;;15.16;100.00
19831;BME280;10076;52.008;4.708;2022-12-24T14:01:34;101372.09;;;15.30;100.00
19831;BME280;10076;52.008;4.708;2022-12-24T14:04:02;101378.78;;;15.25;100.00
19831;BME280;10076;52.008;4.708;2022-12-24T14:06:32;101372.97;;;14.98;100.00
19831;BME280;10076;52.008;4.708;2022-12-24T14:14:28;101376.56;;;15.08;100.00
19831;BME280;10076;52.008;4.708;2022-12-24T14:16:56;101378.13;;;15.11;100.00
19831;BME280;10076;52.008;4.708;2022-12-24T14:19:24;101378.56;;;14.84;100.00
19831;BME280;10076;52.008;4.708;2022-12-24T14:22:39;101390.84;;;14.74;100.00
19831;BME280;10076;52.008;4.708;2022-12-24T14:25:17;101392.69;;;14.63;100.00